Wetterdaten: aktuell Dienstag, 12.12.2017 13:15
Datum Zeit Temp. A. Feuchte A. Luftdruck Regen Wind Richtung Richtung Taupunkt Windchill Windben
12.12.2017 13:15 1,7 C 95 % 1005,8 hPa 0,3 l/m 3,4 km/h (1 Bft) O-NO 64 1,0 C 1,7 C 16,1 km/h (3 Bft)
12.12.2017 13:01 1,5 C 95 % 1005,7 hPa 0,3 l/m 4,1 km/h (1 Bft) O-NO 70 0,8 C 1,5 C 19,3 km/h (3 Bft)
12.12.2017 12:45 1,4 C 95 % 1005,5 hPa 0,3 l/m 5,9 km/h (2 Bft) NO 43 0,7 C 1,4 C 27,4 km/h (4 Bft)
12.12.2017 12:30 1,1 C 95 % 1005,1 hPa 0,3 l/m 5,4 km/h (1 Bft) O 87 0,4 C 1,1 C 17,7 km/h (3 Bft)
12.12.2017 12:15 1,1 C 95 % 1004,8 hPa 0,3 l/m 5,5 km/h (1 Bft) O-NO 64 0,4 C 1,1 C 20,9 km/h (4 Bft)
12.12.2017 12:00 1,1 C 95 % 1004,6 hPa 0,3 l/m 5,6 km/h (1 Bft) O-NO 65 0,4 C 1,1 C 19,3 km/h (3 Bft)
12.12.2017 11:45 1,1 C 95 % 1004,3 hPa 0,0 l/m 3,6 km/h (1 Bft) O 79 0,4 C 1,1 C 14,5 km/h (3 Bft)
12.12.2017 11:30 1,0 C 95 % 1004,0 hPa 0,3 l/m 4,3 km/h (1 Bft) NO 52 0,3 C 1,0 C 22,5 km/h (4 Bft)
12.12.2017 11:15 1,0 C 95 % 1003,6 hPa 0,3 l/m 4,5 km/h (1 Bft) O-NO 70 0,3 C 1,0 C 19,3 km/h (3 Bft)
12.12.2017 11:00 1,2 C 95 % 1003,1 hPa 0,0 l/m 5,7 km/h (1 Bft) NO 56 0,5 C 1,2 C 22,5 km/h (4 Bft)
12.12.2017 10:45 1,4 C 95 % 1002,8 hPa 0,3 l/m 5,1 km/h (1 Bft) NO 50 0,7 C 1,4 C 19,3 km/h (3 Bft)
12.12.2017 10:30 1,4 C 95 % 1002,3 hPa 0,3 l/m 4,5 km/h (1 Bft) O 89 0,7 C 1,4 C 17,7 km/h (3 Bft)
12.12.2017 10:15 1,4 C 95 % 1002,0 hPa 0,3 l/m 6,5 km/h (2 Bft) N-NO 18 0,7 C 1,3 C 22,5 km/h (4 Bft)
12.12.2017 10:00 1,3 C 95 % 1001,7 hPa 0,0 l/m 4,3 km/h (1 Bft) O-NO 64 0,6 C 1,3 C 14,5 km/h (3 Bft)
12.12.2017 09:45 1,3 C 95 % 1001,3 hPa 0,3 l/m 2,4 km/h (1 Bft) O-NO 62 0,6 C 1,3 C 14,5 km/h (3 Bft)
12.12.2017 09:30 1,3 C 94 % 1000,9 hPa 0,0 l/m 5,2 km/h (1 Bft) O-NO 73 0,4 C 1,3 C 19,3 km/h (3 Bft)
12.12.2017 09:18 1,4 C 94 % 1000,5 hPa 0,0 l/m 6,6 km/h (2 Bft) O-NO 59 0,5 C 1,2 C 22,5 km/h (4 Bft)
12.12.2017 09:00 1,4 C 94 % 1000,0 hPa 0,3 l/m 7,0 km/h (2 Bft) O 94 0,5 C 0,8 C 24,1 km/h (4 Bft)
12.12.2017 08:47 1,4 C 94 % 999,8 hPa 0,0 l/m 5,6 km/h (1 Bft) O 80 0,5 C 1,4 C 22,5 km/h (4 Bft)
12.12.2017 08:30 1,3 C 95 % 999,3 hPa 0,0 l/m 6,6 km/h (2 Bft) O-NO 57 0,6 C 1,1 C 24,1 km/h (4 Bft)
12.12.2017 08:16 1,3 C 95 % 998,8 hPa 0,3 l/m 5,4 km/h (1 Bft) NO 46 0,6 C 1,3 C 20,9 km/h (4 Bft)
12.12.2017 08:00 1,3 C 95 % 998,2 hPa 0,0 l/m 5,8 km/h (2 Bft) NO 51 0,6 C 1,3 C 19,3 km/h (3 Bft)
12.12.2017 07:45 1,3 C 95 % 997,9 hPa 0,0 l/m 5,5 km/h (1 Bft) O 97 0,6 C 1,3 C 14,5 km/h (3 Bft)
12.12.2017 07:30 1,2 C 95 % 997,6 hPa 0,0 l/m 5,5 km/h (1 Bft) O-NO 76 0,5 C 1,2 C 20,9 km/h (4 Bft)
12.12.2017 07:15 1,1 C 95 % 997,1 hPa 0,0 l/m 3,7 km/h (1 Bft) O-NO 71 0,4 C 1,1 C 17,7 km/h (3 Bft)
12.12.2017 07:01 1,1 C 95 % 996,6 hPa 0,3 l/m 5,6 km/h (1 Bft) O-NO 68 0,4 C 1,1 C 20,9 km/h (4 Bft)
12.12.2017 06:45 1,0 C 95 % 996,2 hPa 0,0 l/m 4,2 km/h (1 Bft) O-NO 67 0,3 C 1,0 C 24,1 km/h (4 Bft)
12.12.2017 06:30 0,9 C 95 % 995,8 hPa 0,0 l/m 5,4 km/h (1 Bft) O-NO 77 0,2 C 0,9 C 17,7 km/h (3 Bft)
12.12.2017 06:15 1,0 C 95 % 995,5 hPa 0,3 l/m 4,8 km/h (1 Bft) O-NO 74 0,3 C 1,0 C 17,7 km/h (3 Bft)
12.12.2017 06:00 1,1 C 95 % 995,0 hPa 0,0 l/m 4,3 km/h (1 Bft) O-NO 67 0,4 C 1,1 C 14,5 km/h (3 Bft)
12.12.2017 05:45 1,1 C 96 % 994,4 hPa 0,3 l/m 3,3 km/h (1 Bft) O-NO 73 0,5 C 1,1 C 11,3 km/h (2 Bft)
12.12.2017 05:30 1,2 C 96 % 993,8 hPa 0,0 l/m 1,5 km/h (1 Bft) O-NO 59 0,6 C 1,2 C 11,3 km/h (2 Bft)
12.12.2017 05:15 1,2 C 96 % 993,3 hPa 0,3 l/m 2,1 km/h (1 Bft) O 85 0,6 C 1,2 C 16,1 km/h (3 Bft)
12.12.2017 05:00 1,1 C 96 % 992,7 hPa 0,0 l/m 1,7 km/h (1 Bft) O-NO 74 0,5 C 1,1 C 16,1 km/h (3 Bft)
12.12.2017 04:45 1,1 C 96 % 992,1 hPa 0,0 l/m 2,5 km/h (1 Bft) O 86 0,5 C 1,1 C 16,1 km/h (3 Bft)
12.12.2017 04:30 0,9 C 96 % 991,4 hPa 0,0 l/m 1,2 km/h (1 Bft) O 92 0,3 C 0,9 C 12,9 km/h (3 Bft)
12.12.2017 04:15 0,8 C 96 % 990,7 hPa 0,0 l/m 1,5 km/h (1 Bft) O 95 0,2 C 0,8 C 11,3 km/h (2 Bft)
12.12.2017 04:00 0,7 C 96 % 990,3 hPa 0,5 l/m 1,4 km/h (1 Bft) O 100 0,1 C 0,7 C 8,0 km/h (2 Bft)
12.12.2017 03:46 0,7 C 96 % 990,0 hPa 0,0 l/m 0,1 km/h (0 Bft) O 89 0,1 C 0,7 C 1,6 km/h (1 Bft)
12.12.2017 03:30 0,7 C 96 % 989,4 hPa 0,0 l/m 0,2 km/h (0 Bft) O-SO 116 0,1 C 0,7 C 6,4 km/h (2 Bft)
12.12.2017 03:15 0,7 C 96 % 988,9 hPa 0,0 l/m 0,3 km/h (0 Bft) SO 132 0,1 C 0,7 C 8,0 km/h (2 Bft)
12.12.2017 03:00 0,7 C 96 % 988,2 hPa 0,0 l/m 0,8 km/h (0 Bft) SO 131 0,1 C 0,7 C 14,5 km/h (3 Bft)
12.12.2017 02:46 0,7 C 96 % 987,7 hPa 0,0 l/m 0,9 km/h (0 Bft) SO 138 0,1 C 0,7 C 12,9 km/h (3 Bft)
12.12.2017 02:30 0,6 C 96 % 987,2 hPa 0,0 l/m 1,8 km/h (1 Bft) SO 140 0,0 C 0,6 C 12,9 km/h (3 Bft)
12.12.2017 02:15 0,6 C 96 % 986,5 hPa 0,0 l/m 1,7 km/h (1 Bft) SO 129 0,0 C 0,6 C 14,5 km/h (3 Bft)
12.12.2017 02:00 0,6 C 96 % 986,1 hPa 0,0 l/m 1,7 km/h (1 Bft) S-SO 161 0,0 C 0,6 C 14,5 km/h (3 Bft)
12.12.2017 01:30 0,5 C 96 % 985,0 hPa 0,0 l/m 2,4 km/h (1 Bft) S-SO 161 -0,1 C 0,5 C 12,9 km/h (3 Bft)
12.12.2017 01:15 0,5 C 96 % 984,7 hPa 0,0 l/m 0,9 km/h (0 Bft) S-SO 158 -0,1 C 0,5 C 11,3 km/h (2 Bft)
12.12.2017 01:02 0,5 C 96 % 984,3 hPa 0,0 l/m 1,6 km/h (1 Bft) S-SO 160 -0,1 C 0,5 C 11,3 km/h (2 Bft)
12.12.2017 00:45 0,5 C 96 % 983,9 hPa 0,0 l/m 0,9 km/h (0 Bft) S-SO 168 -0,1 C 0,5 C 9,7 km/h (2 Bft)
12.12.2017 00:31 0,4 C 96 % 983,6 hPa 0,0 l/m 2,3 km/h (1 Bft) S 170 -0,2 C 0,4 C 11,3 km/h (2 Bft)
12.12.2017 00:15 0,4 C 96 % 983,3 hPa 0,0 l/m 4,0 km/h (1 Bft) S 172 -0,2 C 0,4 C 17,7 km/h (3 Bft)
12.12.2017 00:00 0,5 C 96 % 982,9 hPa 0,0 l/m 3,2 km/h (1 Bft) S 177 -0,1 C 0,5 C 12,9 km/h (3 Bft)
11.12.2017 23:45 0,6 C 96 % 982,7 hPa 0,0 l/m 2,5 km/h (1 Bft) S 182 0,0 C 0,6 C 12,9 km/h (3 Bft)
11.12.2017 23:30 0,6 C 96 % 982,3 hPa 0,0 l/m 2,9 km/h (1 Bft) S 174 0,0 C 0,6 C 12,9 km/h (3 Bft)
11.12.2017 23:15 0,6 C 96 % 981,8 hPa 0,0 l/m 3,9 km/h (1 Bft) S 189 0,0 C 0,6 C 12,9 km/h (3 Bft)
11.12.2017 23:00 0,6 C 96 % 981,7 hPa 0,0 l/m 1,8 km/h (1 Bft) S 176 0,0 C 0,6 C 11,3 km/h (2 Bft)
11.12.2017 22:45 0,6 C 96 % 981,4 hPa 0,3 l/m 2,0 km/h (1 Bft) S 178 0,0 C 0,6 C 12,9 km/h (3 Bft)
11.12.2017 22:30 0,6 C 96 % 981,4 hPa 0,0 l/m 0,0 km/h (0 Bft) S-SW 192 0,0 C 0,6 C 0,0 km/h (0 Bft)
11.12.2017 22:15 0,6 C 96 % 981,2 hPa 0,3 l/m 0,0 km/h (0 Bft) S-SW 198 0,0 C 0,6 C 0,0 km/h (0 Bft)
11.12.2017 22:00 0,6 C 96 % 980,6 hPa 0,3 l/m 0,2 km/h (0 Bft) S 185 0,0 C 0,6 C 6,4 km/h (2 Bft)
11.12.2017 21:45 0,6 C 96 % 980,2 hPa 0,0 l/m 3,3 km/h (1 Bft) S 186 0,0 C 0,6 C 12,9 km/h (3 Bft)
11.12.2017 21:30 0,6 C 95 % 979,9 hPa 0,3 l/m 2,0 km/h (1 Bft) S 187 -0,1 C 0,6 C 11,3 km/h (2 Bft)
11.12.2017 21:15 0,6 C 95 % 979,4 hPa 0,0 l/m 3,3 km/h (1 Bft) S-SW 203 -0,1 C 0,6 C 12,9 km/h (3 Bft)
11.12.2017 21:00 0,7 C 95 % 979,8 hPa 0,3 l/m 0,2 km/h (0 Bft) S-SO 160 -0,0 C 0,7 C 8,0 km/h (2 Bft)
11.12.2017 20:45 0,7 C 95 % 979,5 hPa 0,0 l/m 0,0 km/h (0 Bft) S-SW 209 -0,0 C 0,7 C 0,0 km/h (0 Bft)
11.12.2017 20:30 0,7 C 95 % 979,3 hPa 0,5 l/m 0,0 km/h (0 Bft) S-SW 207 -0,0 C 0,7 C 0,0 km/h (0 Bft)
11.12.2017 20:15 0,7 C 95 % 979,3 hPa 0,5 l/m 0,0 km/h (0 Bft) S-SW 207 -0,0 C 0,7 C 0,0 km/h (0 Bft)
11.12.2017 20:00 0,7 C 95 % 979,1 hPa 0,0 l/m 0,1 km/h (0 Bft) S-SW 207 -0,0 C 0,7 C 4,8 km/h (1 Bft)
11.12.2017 19:45 0,7 C 95 % 978,9 hPa 0,0 l/m 0,4 km/h (0 Bft) S-SW 207 -0,0 C 0,7 C 8,0 km/h (2 Bft)
11.12.2017 19:30 0,7 C 95 % 978,8 hPa 0,0 l/m 0,0 km/h (0 Bft) SW 233 -0,0 C 0,7 C 0,0 km/h (0 Bft)
11.12.2017 19:15 0,7 C 95 % 978,7 hPa 0,0 l/m 1,4 km/h (1 Bft) W-SW 249 -0,0 C 0,7 C 9,7 km/h (2 Bft)
11.12.2017 19:00 0,7 C 95 % 978,8 hPa 0,0 l/m 0,7 km/h (0 Bft) W-SW 251 -0,0 C 0,7 C 14,5 km/h (3 Bft)
11.12.2017 18:45 0,6 C 95 % 978,9 hPa 0,0 l/m 1,0 km/h (0 Bft) N 4 -0,1 C 0,6 C 9,7 km/h (2 Bft)
11.12.2017 18:30 0,6 C 94 % 978,6 hPa 0,0 l/m 1,3 km/h (1 Bft) W-SW 239 -0,3 C 0,6 C 11,3 km/h (2 Bft)
11.12.2017 18:16 0,5 C 95 % 978,4 hPa 0,0 l/m 3,6 km/h (1 Bft) W-SW 247 -0,2 C 0,5 C 12,9 km/h (3 Bft)
11.12.2017 18:00 0,4 C 94 % 978,6 hPa 0,0 l/m 3,6 km/h (1 Bft) W-SW 241 -0,5 C 0,4 C 14,5 km/h (3 Bft)
11.12.2017 17:45 0,4 C 94 % 978,8 hPa 0,0 l/m 6,3 km/h (2 Bft) SW 218 -0,5 C 0,4 C 12,9 km/h (3 Bft)
11.12.2017 17:30 0,4 C 94 % 978,7 hPa 0,0 l/m 8,2 km/h (2 Bft) W-SW 254 -0,5 C -1,4 C 16,1 km/h (3 Bft)
11.12.2017 17:15 0,3 C 94 % 978,6 hPa 0,0 l/m 6,7 km/h (2 Bft) SW 230 -0,5 C 0,0 C 14,5 km/h (3 Bft)
11.12.2017 17:00 0,3 C 94 % 978,9 hPa 0,0 l/m 8,3 km/h (2 Bft) W-SW 239 -0,5 C -1,6 C 17,7 km/h (3 Bft)
11.12.2017 16:45 0,3 C 94 % 978,7 hPa 0,0 l/m 9,1 km/h (2 Bft) SW 230 -0,5 C -2,4 C 17,7 km/h (3 Bft)
11.12.2017 16:30 0,2 C 94 % 978,7 hPa 0,0 l/m 9,5 km/h (2 Bft) SW 233 -0,6 C -2,8 C 20,9 km/h (4 Bft)
11.12.2017 16:15 0,2 C 94 % 978,7 hPa 0,0 l/m 10,4 km/h (2 Bft) W-SW 247 -0,6 C -3,6 C 19,3 km/h (3 Bft)
11.12.2017 16:11 0,1 C 94 % 978,8 hPa 0,0 l/m 11,7 km/h (2 Bft) W-SW 250 -0,7 C -4,7 C 25,7 km/h (4 Bft)
11.12.2017 15:45 0,0 C 94 % 978,5 hPa 0,0 l/m 9,5 km/h (2 Bft) W-SW 248 -0,8 C -3,0 C 19,3 km/h (3 Bft)
11.12.2017 15:30 -0,1 C 95 % 978,6 hPa 0,0 l/m 12,6 km/h (3 Bft) SW 231 -0,8 C -5,5 C 27,4 km/h (4 Bft)
11.12.2017 15:15 -0,1 C 95 % 979,0 hPa 0,0 l/m 13,4 km/h (3 Bft) W-SW 256 -0,8 C -6,1 C 25,7 km/h (4 Bft)
11.12.2017 15:00 -0,2 C 95 % 979,3 hPa 0,0 l/m 14,0 km/h (3 Bft) W-SW 242 -0,9 C -6,6 C 25,7 km/h (4 Bft)
11.12.2017 14:45 -0,2 C 94 % 979,6 hPa 0,0 l/m 12,4 km/h (3 Bft) SW 234 -1,0 C -5,5 C 25,7 km/h (4 Bft)
11.12.2017 14:30 -0,1 C 95 % 980,2 hPa 0,0 l/m 9,1 km/h (2 Bft) W-SW 249 -0,8 C -2,8 C 19,3 km/h (3 Bft)
11.12.2017 14:15 -0,1 C 94 % 980,7 hPa 0,0 l/m 10,1 km/h (2 Bft) W-SW 237 -0,9 C -3,6 C 22,5 km/h (4 Bft)
11.12.2017 14:00 -0,1 C 94 % 980,8 hPa 0,0 l/m 9,8 km/h (2 Bft) W-SW 243 -0,9 C -3,4 C 19,3 km/h (3 Bft)
_ Min-Zeit 14:45 14:00 18:16 - 19:30 - - 14:45 15:00 19:30
Minimum _ -0,2 C 94 % 978,4 hPa - 0,0 km/h (0 Bft) - - -1,0 C -6,6 C 0,0 km/h (0 Bft)
_ Max-Zeit 13:15 21:45 13:15 20:15 15:00 - - 13:15 13:15 15:30
Maximum _ 1,7 C 96 % 1005,8 hPa 0,5 l/m 14,0 km/h
W-SW (3 Bft)
- - 1,0 C 1,7 C 27,4 km/h
W (4 Bft)
Durchschnitt _ 0,7 C 95 % 988,1 hPa #7,4 l/m 4,5 km/h (1 Bft) O-NO - -0,0 C -0,1 C 15,3 km/h (3 Bft)